sensor_id;sensor_type;location;lat;lon;timestamp;P1;durP1;ratioP1;P2;durP2;ratioP2
17340;SDS011;8788;49.930;8.660;2023-01-15T04:04:11;0.08;;;0.05;;
17340;SDS011;8788;49.930;8.660;2023-01-15T04:06:41;0.20;;;0.10;;
17340;SDS011;8788;49.930;8.660;2023-01-15T04:09:11;0.10;;;0.10;;
17340;SDS011;8788;49.930;8.660;2023-01-15T04:11:41;0.00;;;0.00;;
17340;SDS011;8788;49.930;8.660;2023-01-15T04:14:09;0.75;;;0.28;;
17340;SDS011;8788;49.930;8.660;2023-01-15T04:16:42;0.10;;;0.10;;
17340;SDS011;8788;49.930;8.660;2023-01-15T04:19:12;0.20;;;0.10;;
17340;SDS011;8788;49.930;8.660;2023-01-15T04:21:50;0.00;;;0.00;;
17340;SDS011;8788;49.930;8.660;2023-01-15T04:24:17;1.25;;;0.20;;
17340;SDS011;8788;49.930;8.660;2023-01-15T04:26:44;0.85;;;0.17;;
17340;SDS011;8788;49.930;8.660;2023-01-15T04:29:11;0.10;;;0.10;;
17340;SDS011;8788;49.930;8.660;2023-01-15T04:31:38;0.20;;;0.20;;
17340;SDS011;8788;49.930;8.660;2023-01-15T04:34:06;1.00;;;0.20;;
17340;SDS011;8788;49.930;8.660;2023-01-15T04:36:34;0.03;;;0.03;;
17340;SDS011;8788;49.930;8.660;2023-01-15T04:39:01;0.82;;;0.20;;
17340;SDS011;8788;49.930;8.660;2023-01-15T04:41:29;0.03;;;0.00;;
17340;SDS011;8788;49.930;8.660;2023-01-15T04:44:14;0.00;;;0.00;;
17340;SDS011;8788;49.930;8.660;2023-01-15T04:46:41;0.00;;;0.00;;
17340;SDS011;8788;49.930;8.660;2023-01-15T04:49:10;0.10;;;0.10;;
17340;SDS011;8788;49.930;8.660;2023-01-15T04:51:40;0.10;;;0.10;;
17340;SDS011;8788;49.930;8.660;2023-01-15T04:54:08;0.00;;;0.00;;
17340;SDS011;8788;49.930;8.660;2023-01-15T04:56:37;0.05;;;0.05;;
17340;SDS011;8788;49.930;8.660;2023-01-15T04:59:05;2.83;;;0.17;;
17340;SDS011;8788;49.930;8.660;2023-01-15T05:01:32;0.10;;;0.10;;
17340;SDS011;8788;49.930;8.660;2023-01-15T05:04:00;0.90;;;0.10;;
17340;SDS011;8788;49.930;8.660;2023-01-15T05:06:27;1.15;;;0.20;;
17340;SDS011;8788;49.930;8.660;2023-01-15T05:08:56;0.00;;;0.00;;
17340;SDS011;8788;49.930;8.660;2023-01-15T05:11:24;0.10;;;0.10;;
17340;SDS011;8788;49.930;8.660;2023-01-15T05:13:51;0.22;;;0.13;;
17340;SDS011;8788;49.930;8.660;2023-01-15T05:16:19;0.75;;;0.40;;
17340;SDS011;8788;49.930;8.660;2023-01-15T05:18:49;0.10;;;0.10;;
17340;SDS011;8788;49.930;8.660;2023-01-15T05:21:18;0.10;;;0.10;;
17340;SDS011;8788;49.930;8.660;2023-01-15T05:23:46;0.88;;;0.28;;
17340;SDS011;8788;49.930;8.660;2023-01-15T05:26:16;0.45;;;0.10;;
17340;SDS011;8788;49.930;8.660;2023-01-15T05:28:43;0.57;;;0.10;;
17340;SDS011;8788;49.930;8.660;2023-01-15T05:31:11;0.55;;;0.13;;
17340;SDS011;8788;49.930;8.660;2023-01-15T05:33:40;0.20;;;0.20;;
17340;SDS011;8788;49.930;8.660;2023-01-15T05:36:09;0.20;;;0.10;;
17340;SDS011;8788;49.930;8.660;2023-01-15T05:38:37;0.10;;;0.10;;
17340;SDS011;8788;49.930;8.660;2023-01-15T05:41:05;0.00;;;0.00;;
17340;SDS011;8788;49.930;8.660;2023-01-15T05:43:55;0.10;;;0.10;;
17340;SDS011;8788;49.930;8.660;2023-01-15T05:46:25;0.28;;;0.10;;
17340;SDS011;8788;49.930;8.660;2023-01-15T05:48:52;0.63;;;0.10;;
17340;SDS011;8788;49.930;8.660;2023-01-15T05:51:19;0.25;;;0.20;;
17340;SDS011;8788;49.930;8.660;2023-01-15T05:53:46;0.57;;;0.10;;
17340;SDS011;8788;49.930;8.660;2023-01-15T05:56:13;0.10;;;0.10;;
17340;SDS011;8788;49.930;8.660;2023-01-15T05:58:40;0.20;;;0.10;;
17340;SDS011;8788;49.930;8.660;2023-01-15T06:01:09;0.10;;;0.10;;
17340;SDS011;8788;49.930;8.660;2023-01-15T06:03:37;0.00;;;0.00;;
17340;SDS011;8788;49.930;8.660;2023-01-15T06:06:05;0.05;;;0.05;;
17340;SDS011;8788;49.930;8.660;2023-01-15T06:08:37;0.00;;;0.00;;
17340;SDS011;8788;49.930;8.660;2023-01-15T06:11:05;1.40;;;0.20;;
17340;SDS011;8788;49.930;8.660;2023-01-15T06:13:32;1.00;;;0.35;;
17340;SDS011;8788;49.930;8.660;2023-01-15T06:15:59;0.20;;;0.20;;
17340;SDS011;8788;49.930;8.660;2023-01-15T06:18:28;0.30;;;0.28;;
17340;SDS011;8788;49.930;8.660;2023-01-15T06:20:55;0.77;;;0.40;;
17340;SDS011;8788;49.930;8.660;2023-01-15T06:23:22;1.30;;;0.40;;
17340;SDS011;8788;49.930;8.660;2023-01-15T06:25:49;2.08;;;0.20;;
17340;SDS011;8788;49.930;8.660;2023-01-15T06:28:16;0.20;;;0.10;;
17340;SDS011;8788;49.930;8.660;2023-01-15T06:30:43;0.08;;;0.08;;
17340;SDS011;8788;49.930;8.660;2023-01-15T06:33:10;0.08;;;0.08;;
17340;SDS011;8788;49.930;8.660;2023-01-15T06:35:39;1.27;;;0.10;;
17340;SDS011;8788;49.930;8.660;2023-01-15T06:38:06;0.25;;;0.20;;
17340;SDS011;8788;49.930;8.660;2023-01-15T06:40:33;3.17;;;0.17;;
17340;SDS011;8788;49.930;8.660;2023-01-15T06:43:00;0.00;;;0.00;;
17340;SDS011;8788;49.930;8.660;2023-01-15T06:45:41;0.45;;;0.10;;
17340;SDS011;8788;49.930;8.660;2023-01-15T06:48:25;0.00;;;0.00;;
17340;SDS011;8788;49.930;8.660;2023-01-15T06:50:54;0.20;;;0.20;;
17340;SDS011;8788;49.930;8.660;2023-01-15T06:53:21;0.13;;;0.10;;
17340;SDS011;8788;49.930;8.660;2023-01-15T06:55:48;1.67;;;0.28;;
17340;SDS011;8788;49.930;8.660;2023-01-15T06:58:16;0.30;;;0.30;;
17340;SDS011;8788;49.930;8.660;2023-01-15T07:00:46;0.30;;;0.15;;
17340;SDS011;8788;49.930;8.660;2023-01-15T07:03:19;0.05;;;0.05;;
17340;SDS011;8788;49.930;8.660;2023-01-15T07:05:47;0.35;;;0.10;;
17340;SDS011;8788;49.930;8.660;2023-01-15T07:08:15;0.60;;;0.30;;
17340;SDS011;8788;49.930;8.660;2023-01-15T07:10:42;0.10;;;0.10;;
17340;SDS011;8788;49.930;8.660;2023-01-15T07:13:10;0.55;;;0.20;;
17340;SDS011;8788;49.930;8.660;2023-01-15T07:15:37;0.52;;;0.20;;
17340;SDS011;8788;49.930;8.660;2023-01-15T07:18:04;0.20;;;0.20;;
17340;SDS011;8788;49.930;8.660;2023-01-15T07:20:31;0.40;;;0.30;;
17340;SDS011;8788;49.930;8.660;2023-01-15T07:22:58;0.20;;;0.20;;
17340;SDS011;8788;49.930;8.660;2023-01-15T07:25:27;0.38;;;0.20;;
17340;SDS011;8788;49.930;8.660;2023-01-15T07:27:54;0.30;;;0.30;;
17340;SDS011;8788;49.930;8.660;2023-01-15T07:30:21;0.30;;;0.15;;
17340;SDS011;8788;49.930;8.660;2023-01-15T07:32:48;0.30;;;0.30;;
17340;SDS011;8788;49.930;8.660;2023-01-15T07:35:15;0.40;;;0.10;;
17340;SDS011;8788;49.930;8.660;2023-01-15T07:37:42;0.60;;;0.10;;
17340;SDS011;8788;49.930;8.660;2023-01-15T07:40:09;0.73;;;0.73;;
17340;SDS011;8788;49.930;8.660;2023-01-15T07:42:38;0.35;;;0.25;;
17340;SDS011;8788;49.930;8.660;2023-01-15T07:45:23;0.17;;;0.10;;
17340;SDS011;8788;49.930;8.660;2023-01-15T07:48:08;0.10;;;0.10;;
17340;SDS011;8788;49.930;8.660;2023-01-15T07:50:53;0.20;;;0.20;;
17340;SDS011;8788;49.930;8.660;2023-01-15T07:53:20;1.88;;;0.10;;
17340;SDS011;8788;49.930;8.660;2023-01-15T07:55:47;0.03;;;0.03;;
17340;SDS011;8788;49.930;8.660;2023-01-15T07:58:16;0.00;;;0.00;;
17340;SDS011;8788;49.930;8.660;2023-01-15T08:00:43;0.00;;;0.00;;
17340;SDS011;8788;49.930;8.660;2023-01-15T08:03:10;0.00;;;0.00;;
17340;SDS011;8788;49.930;8.660;2023-01-15T08:05:37;0.00;;;0.00;;
17340;SDS011;8788;49.930;8.660;2023-01-15T08:08:04;0.20;;;0.20;;
17340;SDS011;8788;49.930;8.660;2023-01-15T08:10:31;0.60;;;0.10;;
17340;SDS011;8788;49.930;8.660;2023-01-15T08:13:21;0.10;;;0.10;;
17340;SDS011;8788;49.930;8.660;2023-01-15T08:16:05;0.05;;;0.05;;
17340;SDS011;8788;49.930;8.660;2023-01-15T08:18:32;0.00;;;0.00;;
17340;SDS011;8788;49.930;8.660;2023-01-15T08:20:59;0.10;;;0.05;;
17340;SDS011;8788;49.930;8.660;2023-01-15T08:23:26;0.17;;;0.17;;
17340;SDS011;8788;49.930;8.660;2023-01-15T08:25:53;0.10;;;0.10;;
17340;SDS011;8788;49.930;8.660;2023-01-15T08:28:25;0.00;;;0.00;;
17340;SDS011;8788;49.930;8.660;2023-01-15T08:30:52;0.25;;;0.15;;
17340;SDS011;8788;49.930;8.660;2023-01-15T08:33:20;0.50;;;0.20;;
17340;SDS011;8788;49.930;8.660;2023-01-15T08:35:47;0.10;;;0.10;;
17340;SDS011;8788;49.930;8.660;2023-01-15T08:38:14;0.40;;;0.20;;
17340;SDS011;8788;49.930;8.660;2023-01-15T08:40:41;0.10;;;0.10;;
17340;SDS011;8788;49.930;8.660;2023-01-15T08:43:22;0.10;;;0.10;;
17340;SDS011;8788;49.930;8.660;2023-01-15T08:45:50;2.28;;;0.25;;
17340;SDS011;8788;49.930;8.660;2023-01-15T08:48:18;0.15;;;0.15;;
17340;SDS011;8788;49.930;8.660;2023-01-15T08:50:45;0.20;;;0.10;;
17340;SDS011;8788;49.930;8.660;2023-01-15T08:53:12;0.10;;;0.03;;
17340;SDS011;8788;49.930;8.660;2023-01-15T08:55:39;0.00;;;0.00;;
17340;SDS011;8788;49.930;8.660;2023-01-15T08:58:06;0.05;;;0.05;;
17340;SDS011;8788;49.930;8.660;2023-01-15T09:00:33;0.03;;;0.00;;
17340;SDS011;8788;49.930;8.660;2023-01-15T09:03:02;0.00;;;0.00;;
17340;SDS011;8788;49.930;8.660;2023-01-15T09:05:29;0.05;;;0.05;;
17340;SDS011;8788;49.930;8.660;2023-01-15T09:07:56;0.35;;;0.28;;
17340;SDS011;8788;49.930;8.660;2023-01-15T09:10:24;1.40;;;0.73;;
17340;SDS011;8788;49.930;8.660;2023-01-15T09:12:51;0.38;;;0.30;;
17340;SDS011;8788;49.930;8.660;2023-01-15T09:15:18;2.67;;;0.80;;
17340;SDS011;8788;49.930;8.660;2023-01-15T09:17:45;2.60;;;1.08;;
17340;SDS011;8788;49.930;8.660;2023-01-15T09:20:13;3.63;;;1.58;;
17340;SDS011;8788;49.930;8.660;2023-01-15T09:22:41;1.50;;;0.40;;
17340;SDS011;8788;49.930;8.660;2023-01-15T09:25:08;0.85;;;0.40;;
17340;SDS011;8788;49.930;8.660;2023-01-15T09:27:36;0.65;;;0.30;;
17340;SDS011;8788;49.930;8.660;2023-01-15T09:30:03;0.20;;;0.20;;
17340;SDS011;8788;49.930;8.660;2023-01-15T09:32:31;1.08;;;0.45;;
17340;SDS011;8788;49.930;8.660;2023-01-15T09:34:58;0.20;;;0.20;;
17340;SDS011;8788;49.930;8.660;2023-01-15T09:37:27;0.13;;;0.13;;
17340;SDS011;8788;49.930;8.660;2023-01-15T09:39:54;0.28;;;0.10;;
17340;SDS011;8788;49.930;8.660;2023-01-15T09:42:30;1.33;;;0.47;;
17340;SDS011;8788;49.930;8.660;2023-01-15T09:48:00;1.27;;;0.13;;
17340;SDS011;8788;49.930;8.660;2023-01-15T09:50:46;0.90;;;0.20;;
17340;SDS011;8788;49.930;8.660;2023-01-15T09:56:19;0.90;;;0.40;;
17340;SDS011;8788;49.930;8.660;2023-01-15T09:58:48;0.43;;;0.43;;
17340;SDS011;8788;49.930;8.660;2023-01-15T10:01:17;0.20;;;0.20;;
17340;SDS011;8788;49.930;8.660;2023-01-15T10:03:50;0.30;;;0.30;;
17340;SDS011;8788;49.930;8.660;2023-01-15T10:06:24;0.25;;;0.17;;
17340;SDS011;8788;49.930;8.660;2023-01-15T10:08:58;0.10;;;0.10;;
17340;SDS011;8788;49.930;8.660;2023-01-15T10:11:37;0.20;;;0.20;;
17340;SDS011;8788;49.930;8.660;2023-01-15T10:17:16;0.15;;;0.15;;
17340;SDS011;8788;49.930;8.660;2023-01-15T10:19:46;0.47;;;0.20;;
17340;SDS011;8788;49.930;8.660;2023-01-15T10:22:15;0.25;;;0.25;;
17340;SDS011;8788;49.930;8.660;2023-01-15T10:24:54;0.20;;;0.20;;
17340;SDS011;8788;49.930;8.660;2023-01-15T10:27:23;0.20;;;0.20;;
17340;SDS011;8788;49.930;8.660;2023-01-15T10:29:53;1.10;;;0.73;;
17340;SDS011;8788;49.930;8.660;2023-01-15T10:32:29;0.50;;;0.50;;
17340;SDS011;8788;49.930;8.660;2023-01-15T10:35:16;0.52;;;0.32;;
17340;SDS011;8788;49.930;8.660;2023-01-15T10:37:53;0.95;;;0.30;;
17340;SDS011;8788;49.930;8.660;2023-01-15T10:40:39;0.70;;;0.35;;
17340;SDS011;8788;49.930;8.660;2023-01-15T10:43:18;0.57;;;0.47;;
17340;SDS011;8788;49.930;8.660;2023-01-15T10:45:50;2.15;;;0.90;;
17340;SDS011;8788;49.930;8.660;2023-01-15T10:48:24;2.92;;;0.88;;
17340;SDS011;8788;49.930;8.660;2023-01-15T10:50:56;3.92;;;1.48;;
17340;SDS011;8788;49.930;8.660;2023-01-15T10:53:28;5.15;;;1.77;;
17340;SDS011;8788;49.930;8.660;2023-01-15T10:56:04;2.88;;;1.17;;
17340;SDS011;8788;49.930;8.660;2023-01-15T10:58:38;0.20;;;0.20;;
17340;SDS011;8788;49.930;8.660;2023-01-15T11:01:11;0.40;;;0.38;;
17340;SDS011;8788;49.930;8.660;2023-01-15T11:03:43;0.77;;;0.30;;
17340;SDS011;8788;49.930;8.660;2023-01-15T11:06:12;1.42;;;0.40;;
17340;SDS011;8788;49.930;8.660;2023-01-15T11:08:42;0.20;;;0.20;;
17340;SDS011;8788;49.930;8.660;2023-01-15T11:11:17;0.40;;;0.20;;
17340;SDS011;8788;49.930;8.660;2023-01-15T11:13:51;0.03;;;0.03;;
17340;SDS011;8788;49.930;8.660;2023-01-15T11:16:38;0.30;;;0.10;;
17340;SDS011;8788;49.930;8.660;2023-01-15T11:19:27;1.77;;;0.20;;
17340;SDS011;8788;49.930;8.660;2023-01-15T11:22:04;0.00;;;0.00;;
17340;SDS011;8788;49.930;8.660;2023-01-15T11:24:35;0.20;;;0.20;;
17340;SDS011;8788;49.930;8.660;2023-01-15T11:27:05;0.60;;;0.20;;
17340;SDS011;8788;49.930;8.660;2023-01-15T11:29:34;0.45;;;0.22;;
17340;SDS011;8788;49.930;8.660;2023-01-15T11:32:02;0.28;;;0.13;;
17340;SDS011;8788;49.930;8.660;2023-01-15T11:34:30;0.10;;;0.10;;
17340;SDS011;8788;49.930;8.660;2023-01-15T11:37:00;0.10;;;0.10;;
17340;SDS011;8788;49.930;8.660;2023-01-15T11:39:28;0.45;;;0.28;;
17340;SDS011;8788;49.930;8.660;2023-01-15T11:41:59;1.48;;;0.43;;
17340;SDS011;8788;49.930;8.660;2023-01-15T11:44:56;0.47;;;0.20;;
17340;SDS011;8788;49.930;8.660;2023-01-15T11:47:49;0.35;;;0.13;;
17340;SDS011;8788;49.930;8.660;2023-01-15T11:50:34;0.50;;;0.40;;
17340;SDS011;8788;49.930;8.660;2023-01-15T11:53:14;1.17;;;0.38;;
17340;SDS011;8788;49.930;8.660;2023-01-15T11:55:54;0.63;;;0.30;;
17340;SDS011;8788;49.930;8.660;2023-01-15T11:58:30;0.95;;;0.30;;
17340;SDS011;8788;49.930;8.660;2023-01-15T12:01:01;0.30;;;0.20;;
17340;SDS011;8788;49.930;8.660;2023-01-15T12:03:29;0.17;;;0.10;;
17340;SDS011;8788;49.930;8.660;2023-01-15T12:06:00;1.48;;;0.40;;
17340;SDS011;8788;49.930;8.660;2023-01-15T12:08:42;0.80;;;0.30;;
17340;SDS011;8788;49.930;8.660;2023-01-15T12:11:19;0.63;;;0.50;;
17340;SDS011;8788;49.930;8.660;2023-01-15T12:14:20;0.40;;;0.40;;
17340;SDS011;8788;49.930;8.660;2023-01-15T12:17:09;1.33;;;0.50;;
17340;SDS011;8788;49.930;8.660;2023-01-15T12:19:56;1.35;;;0.20;;
17340;SDS011;8788;49.930;8.660;2023-01-15T12:22:32;0.60;;;0.40;;
17340;SDS011;8788;49.930;8.660;2023-01-15T12:25:22;1.20;;;0.60;;
17340;SDS011;8788;49.930;8.660;2023-01-15T12:28:01;1.38;;;0.20;;
17340;SDS011;8788;49.930;8.660;2023-01-15T12:30:35;0.75;;;0.32;;
17340;SDS011;8788;49.930;8.660;2023-01-15T12:36:05;6.30;;;1.10;;
17340;SDS011;8788;49.930;8.660;2023-01-15T12:38:43;1.38;;;0.40;;
17340;SDS011;8788;49.930;8.660;2023-01-15T12:41:15;0.55;;;0.32;;
17340;SDS011;8788;49.930;8.660;2023-01-15T12:43:46;2.20;;;0.43;;
17340;SDS011;8788;49.930;8.660;2023-01-15T12:46:37;0.47;;;0.30;;
17340;SDS011;8788;49.930;8.660;2023-01-15T12:49:12;1.75;;;0.30;;
17340;SDS011;8788;49.930;8.660;2023-01-15T12:51:51;0.85;;;0.40;;
17340;SDS011;8788;49.930;8.660;2023-01-15T12:54:27;3.95;;;0.73;;
17340;SDS011;8788;49.930;8.660;2023-01-15T12:56:59;0.98;;;0.50;;
17340;SDS011;8788;49.930;8.660;2023-01-15T12:59:34;1.10;;;0.30;;
17340;SDS011;8788;49.930;8.660;2023-01-15T13:02:12;2.83;;;0.45;;
17340;SDS011;8788;49.930;8.660;2023-01-15T13:04:47;0.15;;;0.15;;
17340;SDS011;8788;49.930;8.660;2023-01-15T13:07:19;0.65;;;0.20;;
17340;SDS011;8788;49.930;8.660;2023-01-15T13:09:51;0.73;;;0.38;;
17340;SDS011;8788;49.930;8.660;2023-01-15T13:12:29;1.50;;;0.30;;
17340;SDS011;8788;49.930;8.660;2023-01-15T13:14:57;1.08;;;0.60;;
17340;SDS011;8788;49.930;8.660;2023-01-15T13:17:26;1.60;;;0.85;;
17340;SDS011;8788;49.930;8.660;2023-01-15T13:20:04;2.10;;;0.60;;
17340;SDS011;8788;49.930;8.660;2023-01-15T13:22:45;0.32;;;0.30;;
17340;SDS011;8788;49.930;8.660;2023-01-15T13:28:25;6.30;;;2.75;;
17340;SDS011;8788;49.930;8.660;2023-01-15T13:31:03;5.70;;;2.65;;
17340;SDS011;8788;49.930;8.660;2023-01-15T13:33:38;2.25;;;1.15;;
17340;SDS011;8788;49.930;8.660;2023-01-15T13:36:12;1.63;;;0.98;;
17340;SDS011;8788;49.930;8.660;2023-01-15T13:38:42;0.82;;;0.57;;
17340;SDS011;8788;49.930;8.660;2023-01-15T13:41:15;1.55;;;0.63;;
17340;SDS011;8788;49.930;8.660;2023-01-15T13:44:10;2.08;;;0.88;;
17340;SDS011;8788;49.930;8.660;2023-01-15T13:46:43;2.50;;;1.42;;
17340;SDS011;8788;49.930;8.660;2023-01-15T13:49:18;1.98;;;0.40;;
17340;SDS011;8788;49.930;8.660;2023-01-15T13:51:49;2.20;;;0.70;;
17340;SDS011;8788;49.930;8.660;2023-01-15T13:54:18;0.65;;;0.65;;
17340;SDS011;8788;49.930;8.660;2023-01-15T13:56:49;1.40;;;0.80;;
17340;SDS011;8788;49.930;8.660;2023-01-15T13:59:31;2.10;;;0.80;;
17340;SDS011;8788;49.930;8.660;2023-01-15T14:02:12;2.78;;;0.95;;
17340;SDS011;8788;49.930;8.660;2023-01-15T14:04:50;1.50;;;0.47;;
17340;SDS011;8788;49.930;8.660;2023-01-15T14:07:19;1.75;;;0.70;;
17340;SDS011;8788;49.930;8.660;2023-01-15T14:10:05;1.42;;;0.45;;
17340;SDS011;8788;49.930;8.660;2023-01-15T14:12:35;0.57;;;0.30;;
17340;SDS011;8788;49.930;8.660;2023-01-15T14:15:24;0.43;;;0.20;;
17340;SDS011;8788;49.930;8.660;2023-01-15T14:18:03;3.65;;;0.40;;
17340;SDS011;8788;49.930;8.660;2023-01-15T14:20:54;1.00;;;0.32;;
17340;SDS011;8788;49.930;8.660;2023-01-15T14:23:31;1.10;;;0.60;;
17340;SDS011;8788;49.930;8.660;2023-01-15T14:26:27;1.55;;;0.43;;
17340;SDS011;8788;49.930;8.660;2023-01-15T14:29:03;2.33;;;0.55;;
17340;SDS011;8788;49.930;8.660;2023-01-15T14:31:51;3.22;;;0.55;;
17340;SDS011;8788;49.930;8.660;2023-01-15T14:34:27;1.67;;;0.40;;
17340;SDS011;8788;49.930;8.660;2023-01-15T14:36:56;0.60;;;0.35;;
17340;SDS011;8788;49.930;8.660;2023-01-15T14:39:40;2.25;;;0.60;;
17340;SDS011;8788;49.930;8.660;2023-01-15T14:42:13;1.55;;;0.70;;
17340;SDS011;8788;49.930;8.660;2023-01-15T14:45:07;2.72;;;0.50;;
17340;SDS011;8788;49.930;8.660;2023-01-15T14:47:44;1.98;;;0.50;;
17340;SDS011;8788;49.930;8.660;2023-01-15T14:50:28;1.40;;;0.60;;
17340;SDS011;8788;49.930;8.660;2023-01-15T14:53:04;5.40;;;0.90;;
17340;SDS011;8788;49.930;8.660;2023-01-15T14:55:45;1.17;;;0.30;;
17340;SDS011;8788;49.930;8.660;2023-01-15T14:58:17;2.13;;;0.65;;
17340;SDS011;8788;49.930;8.660;2023-01-15T15:01:00;1.27;;;0.60;;
17340;SDS011;8788;49.930;8.660;2023-01-15T15:03:36;2.20;;;0.38;;
17340;SDS011;8788;49.930;8.660;2023-01-15T15:06:10;1.95;;;0.60;;
17340;SDS011;8788;49.930;8.660;2023-01-15T15:08:39;3.17;;;0.40;;
17340;SDS011;8788;49.930;8.660;2023-01-15T15:11:13;1.38;;;0.57;;
17340;SDS011;8788;49.930;8.660;2023-01-15T15:13:59;1.75;;;0.60;;
17340;SDS011;8788;49.930;8.660;2023-01-15T15:16:29;1.88;;;0.43;;
17340;SDS011;8788;49.930;8.660;2023-01-15T15:18:58;4.50;;;0.47;;
17340;SDS011;8788;49.930;8.660;2023-01-15T15:21:30;2.67;;;0.47;;
17340;SDS011;8788;49.930;8.660;2023-01-15T15:24:01;1.55;;;0.60;;
17340;SDS011;8788;49.930;8.660;2023-01-15T15:26:38;0.80;;;0.40;;
17340;SDS011;8788;49.930;8.660;2023-01-15T15:29:09;0.80;;;0.30;;
17340;SDS011;8788;49.930;8.660;2023-01-15T15:31:39;1.52;;;0.47;;
17340;SDS011;8788;49.930;8.660;2023-01-15T15:34:11;1.30;;;0.35;;
17340;SDS011;8788;49.930;8.660;2023-01-15T15:36:44;1.35;;;0.38;;
17340;SDS011;8788;49.930;8.660;2023-01-15T15:39:15;0.50;;;0.50;;
17340;SDS011;8788;49.930;8.660;2023-01-15T15:41:48;0.30;;;0.30;;
17340;SDS011;8788;49.930;8.660;2023-01-15T15:44:39;1.95;;;0.45;;
17340;SDS011;8788;49.930;8.660;2023-01-15T15:47:35;3.80;;;0.60;;
17340;SDS011;8788;49.930;8.660;2023-01-15T15:50:21;4.53;;;0.75;;
17340;SDS011;8788;49.930;8.660;2023-01-15T15:52:50;4.03;;;0.73;;
17340;SDS011;8788;49.930;8.660;2023-01-15T15:55:19;4.18;;;0.82;;
17340;SDS011;8788;49.930;8.660;2023-01-15T15:57:49;5.68;;;0.52;;
17340;SDS011;8788;49.930;8.660;2023-01-15T16:00:24;2.90;;;0.80;;
17340;SDS011;8788;49.930;8.660;2023-01-15T16:02:56;1.98;;;0.73;;
17340;SDS011;8788;49.930;8.660;2023-01-15T16:05:29;2.88;;;0.47;;
17340;SDS011;8788;49.930;8.660;2023-01-15T16:08:06;1.63;;;0.55;;
17340;SDS011;8788;49.930;8.660;2023-01-15T16:10:39;5.00;;;0.77;;
17340;SDS011;8788;49.930;8.660;2023-01-15T16:13:20;0.98;;;0.77;;
17340;SDS011;8788;49.930;8.660;2023-01-15T16:15:50;0.57;;;0.43;;
17340;SDS011;8788;49.930;8.660;2023-01-15T16:18:21;2.00;;;0.50;;
17340;SDS011;8788;49.930;8.660;2023-01-15T16:20:51;4.30;;;0.60;;
17340;SDS011;8788;49.930;8.660;2023-01-15T16:23:19;4.82;;;0.70;;
17340;SDS011;8788;49.930;8.660;2023-01-15T16:25:54;1.73;;;0.30;;
17340;SDS011;8788;49.930;8.660;2023-01-15T16:28:30;4.43;;;0.35;;
17340;SDS011;8788;49.930;8.660;2023-01-15T16:31:01;2.75;;;0.50;;
17340;SDS011;8788;49.930;8.660;2023-01-15T16:33:28;3.88;;;0.77;;
17340;SDS011;8788;49.930;8.660;2023-01-15T16:35:56;4.20;;;0.57;;
17340;SDS011;8788;49.930;8.660;2023-01-15T16:38:24;1.90;;;0.82;;
17340;SDS011;8788;49.930;8.660;2023-01-15T16:40:51;1.35;;;0.50;;
17340;SDS011;8788;49.930;8.660;2023-01-15T16:43:20;1.90;;;0.68;;
17340;SDS011;8788;49.930;8.660;2023-01-15T16:45:58;3.72;;;0.55;;
17340;SDS011;8788;49.930;8.660;2023-01-15T16:48:29;2.65;;;0.50;;
17340;SDS011;8788;49.930;8.660;2023-01-15T16:53:57;5.50;;;1.02;;
17340;SDS011;8788;49.930;8.660;2023-01-15T16:56:47;1.25;;;0.40;;
17340;SDS011;8788;49.930;8.660;2023-01-15T16:59:17;2.22;;;0.95;;
17340;SDS011;8788;49.930;8.660;2023-01-15T17:02:11;1.35;;;0.63;;
17340;SDS011;8788;49.930;8.660;2023-01-15T17:04:39;0.88;;;0.75;;
17340;SDS011;8788;49.930;8.660;2023-01-15T17:07:13;2.47;;;1.10;;
17340;SDS011;8788;49.930;8.660;2023-01-15T17:09:44;2.55;;;0.40;;
17340;SDS011;8788;49.930;8.660;2023-01-15T17:12:16;2.63;;;0.63;;
17340;SDS011;8788;49.930;8.660;2023-01-15T17:14:50;2.38;;;0.70;;
17340;SDS011;8788;49.930;8.660;2023-01-15T17:17:23;3.03;;;0.93;;
17340;SDS011;8788;49.930;8.660;2023-01-15T17:19:54;6.40;;;0.55;;
17340;SDS011;8788;49.930;8.660;2023-01-15T17:22:22;1.55;;;0.68;;
17340;SDS011;8788;49.930;8.660;2023-01-15T17:24:52;0.93;;;0.60;;
17340;SDS011;8788;49.930;8.660;2023-01-15T17:27:20;1.58;;;0.75;;
17340;SDS011;8788;49.930;8.660;2023-01-15T17:29:48;1.00;;;0.43;;
17340;SDS011;8788;49.930;8.660;2023-01-15T17:32:16;1.80;;;1.00;;
17340;SDS011;8788;49.930;8.660;2023-01-15T17:34:47;1.85;;;0.70;;
17340;SDS011;8788;49.930;8.660;2023-01-15T17:37:14;2.17;;;0.93;;
17340;SDS011;8788;49.930;8.660;2023-01-15T17:39:41;3.40;;;0.80;;
17340;SDS011;8788;49.930;8.660;2023-01-15T17:42:10;1.33;;;0.57;;
17340;SDS011;8788;49.930;8.660;2023-01-15T17:44:38;1.50;;;1.02;;
17340;SDS011;8788;49.930;8.660;2023-01-15T17:47:06;3.72;;;1.13;;
17340;SDS011;8788;49.930;8.660;2023-01-15T17:49:33;2.58;;;0.70;;
17340;SDS011;8788;49.930;8.660;2023-01-15T17:52:02;3.20;;;0.98;;
17340;SDS011;8788;49.930;8.660;2023-01-15T17:54:31;3.90;;;0.80;;
17340;SDS011;8788;49.930;8.660;2023-01-15T17:57:15;1.58;;;0.70;;
17340;SDS011;8788;49.930;8.660;2023-01-15T18:00:09;2.10;;;0.82;;
17340;SDS011;8788;49.930;8.660;2023-01-15T18:02:54;0.93;;;0.80;;
17340;SDS011;8788;49.930;8.660;2023-01-15T18:05:40;1.77;;;0.80;;
17340;SDS011;8788;49.930;8.660;2023-01-15T18:08:09;6.13;;;0.90;;
17340;SDS011;8788;49.930;8.660;2023-01-15T18:10:37;2.50;;;0.98;;
17340;SDS011;8788;49.930;8.660;2023-01-15T18:13:04;1.58;;;0.90;;
17340;SDS011;8788;49.930;8.660;2023-01-15T18:15:32;1.10;;;0.75;;
17340;SDS011;8788;49.930;8.660;2023-01-15T18:17:59;1.08;;;0.80;;
17340;SDS011;8788;49.930;8.660;2023-01-15T18:20:26;3.97;;;0.93;;
17340;SDS011;8788;49.930;8.660;2023-01-15T18:22:53;1.08;;;0.80;;
17340;SDS011;8788;49.930;8.660;2023-01-15T18:25:22;4.72;;;0.73;;
17340;SDS011;8788;49.930;8.660;2023-01-15T18:27:49;5.25;;;0.93;;
17340;SDS011;8788;49.930;8.660;2023-01-15T18:30:16;1.38;;;0.60;;
17340;SDS011;8788;49.930;8.660;2023-01-15T18:32:43;4.88;;;0.95;;
17340;SDS011;8788;49.930;8.660;2023-01-15T18:35:10;1.48;;;0.73;;
17340;SDS011;8788;49.930;8.660;2023-01-15T18:37:39;3.38;;;0.73;;
17340;SDS011;8788;49.930;8.660;2023-01-15T18:40:07;4.80;;;1.10;;
17340;SDS011;8788;49.930;8.660;2023-01-15T18:42:38;0.93;;;0.68;;
17340;SDS011;8788;49.930;8.660;2023-01-15T18:45:22;1.05;;;0.95;;
17340;SDS011;8788;49.930;8.660;2023-01-15T18:48:07;1.67;;;0.88;;
17340;SDS011;8788;49.930;8.660;2023-01-15T18:50:34;4.55;;;0.70;;
17340;SDS011;8788;49.930;8.660;2023-01-15T18:53:01;3.78;;;0.90;;
17340;SDS011;8788;49.930;8.660;2023-01-15T18:55:28;4.45;;;0.70;;
17340;SDS011;8788;49.930;8.660;2023-01-15T18:57:57;3.55;;;0.77;;
17340;SDS011;8788;49.930;8.660;2023-01-15T19:00:24;2.38;;;0.93;;
17340;SDS011;8788;49.930;8.660;2023-01-15T19:02:51;4.07;;;0.82;;
17340;SDS011;8788;49.930;8.660;2023-01-15T19:05:18;6.57;;;0.85;;
17340;SDS011;8788;49.930;8.660;2023-01-15T19:07:45;6.43;;;0.73;;
17340;SDS011;8788;49.930;8.660;2023-01-15T19:10:13;3.85;;;0.95;;
17340;SDS011;8788;49.930;8.660;2023-01-15T19:12:41;2.55;;;0.88;;
17340;SDS011;8788;49.930;8.660;2023-01-15T19:15:11;9.40;;;1.35;;
17340;SDS011;8788;49.930;8.660;2023-01-15T19:17:57;3.75;;;0.80;;
17340;SDS011;8788;49.930;8.660;2023-01-15T19:20:42;2.20;;;0.80;;
17340;SDS011;8788;49.930;8.660;2023-01-15T19:23:09;2.53;;;0.98;;
17340;SDS011;8788;49.930;8.660;2023-01-15T19:25:37;2.20;;;0.63;;
17340;SDS011;8788;49.930;8.660;2023-01-15T19:28:05;3.97;;;0.80;;
17340;SDS011;8788;49.930;8.660;2023-01-15T19:30:37;3.97;;;1.15;;
17340;SDS011;8788;49.930;8.660;2023-01-15T19:33:04;1.83;;;0.73;;
17340;SDS011;8788;49.930;8.660;2023-01-15T19:35:33;1.38;;;0.85;;
17340;SDS011;8788;49.930;8.660;2023-01-15T19:38:01;3.40;;;0.95;;
17340;SDS011;8788;49.930;8.660;2023-01-15T19:40:32;1.10;;;0.77;;
17340;SDS011;8788;49.930;8.660;2023-01-15T19:43:04;3.22;;;1.30;;
17340;SDS011;8788;49.930;8.660;2023-01-15T19:45:50;5.00;;;1.23;;
17340;SDS011;8788;49.930;8.660;2023-01-15T19:48:34;6.00;;;1.25;;
17340;SDS011;8788;49.930;8.660;2023-01-15T19:51:18;2.08;;;1.02;;
17340;SDS011;8788;49.930;8.660;2023-01-15T19:53:45;2.00;;;1.20;;